Detall de PIREP

Printer-friendly versionPDF version

[2017/02/19 08:44:00]
Flight IATA:CT3235
Pilot Number:012
Company ICAO:CAT
Aircraft Type:A320/E
PAX:150
Departing Airport: LFPG
Destination Airport: LEPA
Alternate Airport:LEBL
Online: VATSIM
Route:ERIXU UN860 ETAMO UN855 PPG UP84 LORES
Flight Level:F370
No Slew and time accel
No pause
Crash detect
Detect pilot in Cockpit between each 30 and 45 minutes
08:44 Zero fuel Weight: 121180 Lbs, Fuel Weight: 16726 Lbs
08:44 VATSIM:LFPG 190830Z VRB02KT 0300 R27L/P2000 R09R/0450D R26R/0200N R08L/0225N R26L/0225N R08R/0225N R27R/P2000 R09L/0400N FG BKN001 SCT001 00/00 Q1025 BECMG 6000 NSW
08:44 VATSIM:LEPA 190830Z 00000KT 9999 FEW025 11/09 Q1025 NOSIG
08:46 Parking Brakes off
08:52 Take-off
08:52 Take off Weight: 137045 Lbs
08:52 Wind: 159º @ 000 Knots Heading: 265º
08:52 POS N49º 01´ 19´´ E002º 32´ 23´´
08:52 Gear Up: 165 Knots
08:52 Flaps:3 at 165 Knots
08:52 Flaps:2 at 174 Knots
08:52 Flaps:0 at 192 Knots
09:07 Wind:350º@023 Knots Heading: 177º Ground Speed: 462 Knots Altitude 33854 ft
09:09 TOC
09:09 Fuel Weight: 11852 Lb
09:22 Wind:000º@022 Knots Heading: 178º Ground Speed: 462 Knots Altitude 37355 ft
09:37 Wind:042º@022 Knots Heading: 177º Ground Speed: 457 Knots Altitude 37404 ft
09:52 Wind:058º@035 Knots Heading: 181º Ground Speed: 464 Knots Altitude 37378 ft
09:54 TOD
09:54 Fuel Weight: 7841 Lb
10:07 Wind:086º@009 Knots Heading: 148º Ground Speed: 306 Knots Altitude 12562 ft
10:17 Flaps:1 at 218 Knots
10:17 Flaps:3 at 199 Knots
10:20 Gear Down: 169 Knots
10:20 Flaps:4 at 159 Knots
10:21 Flaps:5 at 141 Knots
10:22 Wind:049º@001 Knots Heading: 234º Ground Speed: 143 Knots Altitude 1538 ft
10:24 TouchDown:Rate -379 ft/min Speed: 130 Knots
10:24 Flaps:1 at 30 Knots
10:24 Flaps:0 at 24 Knots
10:24 VATSIM:LEPA 191000Z VRB01KT 9999 FEW025 15/08 Q1025 NOSIG
10:24 Land
10:24 Wind:006º@001 Knots
10:24 Heading: 257º
10:24 Flight Duration: 01:32
10:24 Landing Weight: 126785 Lbs
10:24 POS N39º 32´ 53´´ E002º 44´ 42´´
10:27 Parking brakes on
10:27 Block to Block Duration: 01:41
10:27 Final Fuel: 5324 Lbls
10:27 Spent Fuel: 11402 Lbls
10:27 Flight Length: 599 NM
10:27 TOD Land Length: 143 NM

Exportar CSV

Powered by Drupal - Modified by Danger4k